Decoded Metar for PAPB (POINT BARROW in AK, USA) (IATA:N/A) | Meteo·Mobile Aviation Weather
aviador You're here:

PAPB Decoded Metar

POINT BARROW in AK, USA
Report Time2018-11-16 02:53:00
UTC Time2018-11-16 03:59:54
Flight Rules Old
Wind340° at 08 kt
W.Decomp.*RWY 29: 6.2 kt HW 5.0 kt RCW
W.Rank340° ranks 7
Current wind is below 340° avg. (14.2)
Visibility9999 m
Phenomena:N/A
Clouds:Broken 023 Hf
Overcast 034 Hf
Ceiling2,300 ft
Temp01°C (ISA -14)
Dew Point01°C (100% RH)
AAT-3.7°C
QNH1009 hPa
Density Alt-1,339 ft
Elevation115 ft
Report Wrong Elevation
Raw Report
PAPB 160253Z AUTO 34008KT 9SM UP BKN023 OVC034 01/01 A2979 RMK AO2
UPB46SNE06B23E38 SLP077 P0001 60001 T00110011 55000 TSNO
$=

Extra information for PAPB:More info

Metar Taf Metar & Taf Last 4 Metars F.Rules Stats Wind Profile Meteogram Temp Stats Airport Information Weather charts Add Link Nearby VenuesMetar ALERT Operation Metar Decoded Social comments

AIRNAV info for PAPB